KINL/INL METAR and TAF weather

Enter ICAO airport designator
Station Type Date Time Source
KINL METAR 2021/09/28 16:54 UTC NOAA

KINL 281654Z AUTO 22009G14KT 10SM CLR 23/12 A2985 RMK AO2 SLP108 T02280117


Station Type Date Time Source
KINL Decoded METAR 2021/09/28 16:54 UTC NOAA

FALLS INTERNATIONAL AIRPORT , MN, United States (KINL) 48-34N 093-24W 360M
Sep 28, 2021 - 12:54 PM EDT / 2021.09.28 1654 UTC
Wind: from the SW (220 degrees) at 10 MPH (9 KT) gusting to 16 MPH (14 KT):0
Visibility: 10 mile(s):0
Sky conditions: clear
Temperature: 73.0 F (22.8 C)
Dew Point: 53.1 F (11.7 C)
Relative Humidity: 49%
Pressure (altimeter): 29.85 in. Hg (1010 hPa)
ob: KINL 281654Z AUTO 22009G14KT 10SM CLR 23/12 A2985 RMK AO2 SLP108 T02280117
cycle: 17

Station Type Date Time Source
KINL TAF 2021/09/28 18:22 UTC NOAA

TAF KINL 281720Z 2818/2918 19006G16KT P6SM SKC
FM290100 15005KT P6SM SKC
FM291500 14007G14KT P6SM FEW250

Example: see airport list